Ana Sayfa
METAR-TAF:

METAR-TAF

Havaalanları :

Audubon County Airport

Audubon, Iowa, Amerika Birleşik Devletleri

Enlem: 41-42-04N, Boylam: 094-55-13W, yükseklik: 392 m

Güncel hava durumu gözlemi

Rapor saat 18:35 UTC de 32 dakika önce yapıldı.
Rüzgar güney/güneybatıdan 13 kt ve 23 kt'a kadar ani rüzgarlar
Sıcaklık 30°C
Nem 62%
Basınç 1007 hPa
Görüş mesafesi: 16.1 km
200 ft yükseklikte parçalı çok bulutlu
3000 ft yükseklikte parçalı çok bulutlu
7000 ft yükseklikte çok bulutlu

METAR: KADU 161835Z AUTO 21013G23KT 10SM BKN002 BKN030 OVC070 30/22 A2973 RMK AO2

Saat: 14:07 (19:07 UTC)


TAF: eksik

4.000'den fazla havaalanı için hava durumu gözlemleri ve tahminleri (METAR ve TAF raporları).

Kullanılabilir istasyonlar harita üzerinde sarı ve kırmızı noktalarla gösterilir.

İstasyonun adını görmek için fareyi noktanın üzerinde gezdirin.

Sonrasında hava gözlem ve tahminlerini görmek için tıklayın.

Haritayı değiştirmek için: yaklaştırmak için siyah artı işaretli yeşil düğmeye ve uzaklaştırmak için de eksi işaretli düğmeye hızla tıklayın; bitişik haritalar için yeşil okları kullanın.


METAR-TAF: